Weather reports worldwide

Advertisment
Ross-on-Wye, United Kingdom (99207): temperature & dewpoint: 15.05.2019 04:00:00 - 21.05.2019 04:00:00 (BST)Ross-on-Wye, United Kingdom (99207): temperature -20cm: 15.05.2019 04:00:00 - 21.05.2019 04:00:00 (BST)Ross-on-Wye, United Kingdom (99207): wind speed: 15.05.2019 04:00:00 - 21.05.2019 04:00:00 (BST)Ross-on-Wye, United Kingdom (99207): wind direction: 15.05.2019 04:00:00 - 21.05.2019 04:00:00 (BST)Ross-on-Wye, United Kingdom (99207): sunshine duration: 15.05.2019 04:00:00 - 21.05.2019 04:00:00 (BST)Ross-on-Wye, United Kingdom (99207): precipitation: 15.05.2019 04:00:00 - 21.05.2019 04:00:00 (BST)
Date & Time tt [°C] td [°C] tt -20cm [°C] ff [km/h] ff [kn] dd sd [min] rr [mm]
21.05.2019 04:00:00 6,9 6,4 - 2 1 SSW 0 0,2
21.05.2019 03:00:00 7,7 7,0 - 2 1 WNW 0 0,0
21.05.2019 02:00:00 8,6 7,8 - 2 1 NE 0 0,0
21.05.2019 01:00:00 9,5 8,1 - 2 1 ENE - 0,0
21.05.2019 00:00:00 10,6 8,9 - 2 1 NNE 0 0,0
20.05.2019 23:00:00 12,0 10,0 - 4 2 N 0 0,0
20.05.2019 22:00:00 12,3 10,6 - 2 1 N 0 0,0
20.05.2019 21:00:00 12,8 10,0 - 5 3 W 0 0,0
20.05.2019 20:00:00 12,9 9,0 - 8 4 W 0 0,0
20.05.2019 19:00:00 15,1 8,3 - 9 5 NNW 0 0,0
20.05.2019 18:00:00 17,7 8,3 - 2 1 SW 12 0,0
20.05.2019 17:00:00 18,3 6,6 - 5 3 WNW 30 0,0
20.05.2019 16:00:00 18,0 7,6 - 5 3 NE 18 0,0
20.05.2019 15:00:00 17,3 7,3 - 4 2 ENE 0 0,0
20.05.2019 14:00:00 16,1 8,1 - 8 4 N 0 0,0
20.05.2019 13:00:00 17,4 9,7 - 8 4 NNE 42 0,0
20.05.2019 12:00:00 16,4 9,3 - 5 3 NW 36 0,0
20.05.2019 11:00:00 15,2 9,3 - 8 4 NNW 54 0,0
20.05.2019 10:00:00 13,7 9,6 14,2 5 3 NNW 18 0,0
20.05.2019 09:00:00 11,9 8,7 - 9 5 N 6 0,0
20.05.2019 08:00:00 9,6 7,7 - 4 2 NNE 0 0,0
20.05.2019 07:00:00 10,2 8,4 - 2 1 NE 12 0,0
20.05.2019 06:00:00 9,2 7,3 - 4 2 NW 0 0,0
20.05.2019 05:00:00 9,6 7,7 - 2 1 NNW 0 0,0
20.05.2019 04:00:00 9,8 8,1 - 4 2 N 0 0,0
20.05.2019 03:00:00 9,9 8,4 - 4 2 NNE 0 0,0
20.05.2019 02:00:00 10,1 8,8 - 2 1 SW 0 0,0
20.05.2019 01:00:00 10,3 8,5 - 4 2 N - 0,0
20.05.2019 00:00:00 10,9 8,7 - 4 2 NE 0 0,0
19.05.2019 23:00:00 11,6 8,8 - 4 2 NE 0 0,0
19.05.2019 22:00:00 12,2 9,7 - 4 2 NNW 0 0,0
19.05.2019 21:00:00 12,9 10,3 - 5 3 N 0 0,0
19.05.2019 20:00:00 13,1 10,2 - 5 3 N 0 1,4
19.05.2019 19:00:00 13,2 11,4 - 9 5 NNE 0 5,4
19.05.2019 18:00:00 15,7 8,0 - 5 3 ENE 0 0,0
19.05.2019 17:00:00 16,1 8,6 - 11 6 NE 0 0,0
19.05.2019 16:00:00 16,1 9,0 - 5 3 N 0 0,0
19.05.2019 15:00:00 16,9 9,8 - 5 3 E 0 0,0
19.05.2019 14:00:00 16,6 9,3 - 4 2 N 0 0,0
19.05.2019 13:00:00 16,1 9,5 - 5 3 NNE 0 0,0
19.05.2019 12:00:00 15,0 9,3 - 5 3 NW 0 0,0
19.05.2019 11:00:00 15,2 9,8 - 8 4 N 18 0,0
19.05.2019 10:00:00 14,4 9,5 14,5 5 3 NNW 24 0,0
19.05.2019 09:00:00 13,0 9,0 - 5 3 N 24 0,0
19.05.2019 08:00:00 11,6 8,7 - 2 1 NNE 12 0,0
19.05.2019 07:00:00 9,7 7,6 - 2 1 NNW 0 0,0
19.05.2019 06:00:00 9,0 7,1 - 2 1 NE 0 0,0
19.05.2019 05:00:00 9,0 7,0 - 2 1 ESE 0 0,0
19.05.2019 04:00:00 9,3 7,0 - 2 1 WNW 0 0,0
19.05.2019 03:00:00 9,2 7,2 - 2 1 N 0 0,0
19.05.2019 02:00:00 10,5 8,1 - 0 0 N 0 0,0
19.05.2019 01:00:00 11,9 8,4 - 2 1 SW - 0,0
19.05.2019 00:00:00 12,6 8,7 - 4 2 WNW 0 0,0
18.05.2019 23:00:00 13,1 8,7 - 4 2 WSW 0 0,0
18.05.2019 22:00:00 13,6 8,5 - 2 1 NW 0 0,0
18.05.2019 21:00:00 14,1 8,8 - 4 2 N 0 0,0
18.05.2019 20:00:00 14,9 8,2 - 4 2 E 0 0,0
18.05.2019 19:00:00 15,6 8,3 - 5 3 NE 6 0,0
18.05.2019 18:00:00 15,7 7,9 - 4 2 ENE 0 0,0
18.05.2019 17:00:00 15,6 8,6 - 2 1 NW 0 0,0
18.05.2019 16:00:00 14,1 8,9 - 4 2 NW 0 0,0
18.05.2019 15:00:00 14,6 8,3 - 8 4 WNW 0 0,0
18.05.2019 14:00:00 15,6 7,5 - 5 3 ENE 36 0,0
18.05.2019 13:00:00 15,6 8,9 - 5 3 E 12 0,0
18.05.2019 12:00:00 14,3 8,0 - 5 3 NNE 0 0,0
18.05.2019 11:00:00 13,5 8,7 - 5 3 N 0 0,0
18.05.2019 10:00:00 12,7 8,7 14,4 5 3 NNE 0 0,0
18.05.2019 09:00:00 11,6 8,4 - 4 2 NNW 0 0,0
18.05.2019 08:00:00 11,0 8,5 - 4 2 NNW 0 0,0
18.05.2019 07:00:00 10,4 8,6 - 4 2 NNW 0 0,0
18.05.2019 06:00:00 10,0 8,7 - 2 1 WSW 0 0,0
18.05.2019 05:00:00 9,8 8,9 - 2 1 ENE 0 0,0
18.05.2019 04:00:00 9,8 8,7 - 0 0 N 0 0,0
18.05.2019 03:00:00 10,2 8,5 - 0 0 N 0 0,0
18.05.2019 02:00:00 10,5 8,6 - 2 1 WSW 0 0,0
18.05.2019 01:00:00 10,7 8,2 - 0 0 N - 0,0
18.05.2019 00:00:00 11,0 7,9 - 0 0 N 0 0,0
17.05.2019 23:00:00 11,2 7,9 - 2 1 NNW 0 0,0
17.05.2019 22:00:00 11,9 6,9 - 2 1 ENE 0 0,0
17.05.2019 21:00:00 12,7 6,7 - 4 2 NE 0 0,0
17.05.2019 20:00:00 13,2 6,8 - 5 3 E 0 0,0
17.05.2019 19:00:00 14,2 10,7 - 4 2 NNE 0 0,0
17.05.2019 18:00:00 14,1 10,0 - 4 2 NW 0 0,0
17.05.2019 17:00:00 14,8 9,9 - 4 2 W 18 0,0
17.05.2019 16:00:00 12,5 9,5 - 4 2 N 0 0,0
17.05.2019 15:00:00 12,3 9,1 - 9 5 N 0 0,0
17.05.2019 14:00:00 12,1 8,7 - 11 6 NNE 0 0,0
17.05.2019 13:00:00 11,9 8,1 - 13 7 NE 0 0,0
17.05.2019 12:00:00 11,5 7,6 - 15 8 NE 0 0,0
17.05.2019 11:00:00 11,3 7,4 - 15 8 NNE 0 0,0
17.05.2019 10:00:00 10,7 7,2 15,5 11 6 NNE 0 0,0
17.05.2019 09:00:00 10,2 8,3 - 8 4 N 0 0,0
17.05.2019 08:00:00 9,0 7,6 - 8 4 N 0 0,0
17.05.2019 07:00:00 8,9 6,8 - 5 3 N 0 0,0
17.05.2019 06:00:00 9,2 6,0 - 9 5 NE 0 0,0
17.05.2019 05:00:00 8,3 5,2 - 8 4 NE 0 0,0
17.05.2019 04:00:00 8,5 4,5 - 9 5 NNE 0 0,0
17.05.2019 03:00:00 9,8 3,9 - 13 7 NE 0 0,0
17.05.2019 02:00:00 10,8 3,6 - 15 8 ENE 0 0,0
17.05.2019 01:00:00 11,1 3,3 - 16 9 NE - 0,0
17.05.2019 00:00:00 11,6 3,8 - 13 7 ENE 0 0,0
16.05.2019 23:00:00 12,3 4,9 - 15 8 NE 0 0,0
16.05.2019 22:00:00 12,8 4,1 - 11 6 ENE 0 0,0
16.05.2019 21:00:00 13,0 4,3 - 13 7 ENE 0 0,0
16.05.2019 20:00:00 14,8 4,2 - 11 6 ENE 0 0,0
16.05.2019 19:00:00 15,8 5,1 - 11 6 ENE 0 0,0
16.05.2019 18:00:00 16,1 5,2 - 13 7 ENE 0 0,0
16.05.2019 17:00:00 17,6 4,9 - 13 7 ENE 18 0,0
16.05.2019 16:00:00 17,4 3,7 - 13 7 E 18 0,0
16.05.2019 15:00:00 17,6 3,5 - 13 7 ENE 24 0,0
16.05.2019 14:00:00 19,0 3,6 - 11 6 E 60 0,0
16.05.2019 13:00:00 17,7 6,1 - 13 7 ENE 60 0,0
16.05.2019 12:00:00 16,3 7,3 - 15 8 ENE 60 0,0
16.05.2019 11:00:00 14,9 6,5 - 13 7 ENE 60 0,0
16.05.2019 10:00:00 13,5 6,6 15,5 9 5 E 36 0,0
16.05.2019 09:00:00 11,7 5,6 - 9 5 ENE 60 0,0
16.05.2019 08:00:00 10,6 5,1 - 11 6 ENE 54 0,0
16.05.2019 07:00:00 8,8 4,2 - 9 5 ENE 42 0,0
16.05.2019 06:00:00 7,6 5,4 - 5 3 E 0 0,0
16.05.2019 05:00:00 7,4 5,5 - 8 4 ENE 0 0,0
16.05.2019 04:00:00 7,7 5,8 - 2 1 WSW 0 0,0
16.05.2019 03:00:00 8,7 6,4 - 5 3 ENE 0 0,0
16.05.2019 02:00:00 9,8 6,7 - 5 3 ENE 0 0,0
16.05.2019 01:00:00 11,4 7,1 - 9 5 E - 0,0
16.05.2019 00:00:00 12,0 7,4 - 8 4 E 0 0,0
15.05.2019 23:00:00 12,3 7,4 - 5 3 ENE 0 0,0
15.05.2019 22:00:00 13,9 7,6 - 5 3 E 0 0,0
15.05.2019 21:00:00 16,1 7,9 - 8 4 ENE 12 0,0
15.05.2019 20:00:00 18,1 7,9 - 9 5 ENE 42 0,0
15.05.2019 19:00:00 18,3 7,3 - 9 5 ENE 18 0,0
15.05.2019 18:00:00 19,6 6,5 - 8 4 E 24 0,0
15.05.2019 17:00:00 19,3 6,5 - 9 5 ENE 0 0,0
15.05.2019 16:00:00 19,6 6,1 - 5 3 NNE 48 0,0
15.05.2019 15:00:00 19,3 5,5 - 9 5 E 60 0,0
15.05.2019 14:00:00 19,8 7,0 - 8 4 ENE 60 0,0
15.05.2019 13:00:00 18,4 5,7 - 9 5 ENE 60 0,0
15.05.2019 12:00:00 17,5 5,5 - 9 5 E 60 0,0
15.05.2019 11:00:00 16,2 6,7 - 5 3 ESE 60 0,0
15.05.2019 10:00:00 15,2 6,5 15,2 8 4 E 42 0,0
15.05.2019 09:00:00 12,8 5,7 - 5 3 ENE 60 0,0
15.05.2019 08:00:00 11,2 5,6 - 5 3 ENE 60 0,0
15.05.2019 07:00:00 9,2 5,3 - 5 3 ENE 54 0,0
15.05.2019 06:00:00 6,3 5,3 - 4 2 NE 0 0,0
15.05.2019 05:00:00 5,9 5,0 - 0 0 N 0 0,0
15.05.2019 04:00:00 6,6 5,3 - 2 1 E 0 0,0

tt = temperature
td = dewpoint
tt -20cm = temperature -20cm
ff = wind speed
dd = wind direction
sd = sunshine duration
rr = precipitation

Next stations